Time;durP1;ratioP1;P1;durP2;ratioP2;P2;SDS_P1;SDS_P2;PMS_P1;PMS_P2;Temp;Humidity;BMP_temperature;BMP_pressure;BME280_temperature;BME280_humidity;BME280_pressure;Samples;Min_cycle;Max_cycle;Signal;HPM_P1;HPM_P2
2022/09/18 00:05:18;;;;;;;10.00;2.60;;;;;;;10.11;81.53;97445.73;432204;1273;108702;-41
2022/09/18 00:15:25;;;;;;;9.30;2.00;;;;;;;10.11;81.57;97454.34;432392;1273;96067;-41
2022/09/18 00:25:33;;;;;;;9.10;3.00;;;;;;;10.06;81.53;97459.55;432313;1273;109639;-40
2022/09/18 00:35:42;;;;;;;6.90;2.40;;;;;;;9.99;81.55;97459.34;432505;1274;108900;-41
2022/09/18 00:45:54;;;;;;;11.70;2.80;;;;;;;9.93;81.54;97459.81;432369;1274;96144;-41
2022/09/18 00:56:01;;;;;;;6.70;2.20;;;;;;;9.94;81.52;97459.21;432437;1274;109892;-41
2022/09/18 01:16:18;;;;;;;5.00;2.20;;;;;;;9.77;81.39;97457.98;433660;1269;96107;-39
2022/09/18 01:26:32;;;;;;;5.40;1.40;;;;;;;9.68;81.26;97457.99;434750;1261;96125;-41
2022/09/18 01:36:45;;;;;;;6.70;1.90;;;;;;;9.61;81.25;97465.92;432888;1271;108186;-40
2022/09/18 01:46:55;;;;;;;3.50;1.40;;;;;;;9.58;81.17;97469.27;432826;1271;96252;-40
2022/09/18 01:57:04;;;;;;;3.80;1.90;;;;;;;9.49;81.23;97472.52;433464;1270;109992;-41
2022/09/18 02:07:18;;;;;;;7.10;2.00;;;;;;;9.36;81.14;97472.56;433540;1266;108929;-40
2022/09/18 02:17:32;;;;;;;8.30;1.80;;;;;;;9.26;81.02;97468.52;433806;1268;108811;-40
2022/09/18 02:27:42;;;;;;;6.50;1.70;;;;;;;9.24;80.93;97466.60;433601;1268;96226;-40
2022/09/18 02:37:50;;;;;;;5.60;1.70;;;;;;;9.25;81.03;97460.96;433559;1268;108759;-41
2022/09/18 03:08:22;;;;;;;11.20;2.60;;;;;;;8.69;80.60;97455.56;433871;1268;109809;-40
2022/09/18 03:18:29;;;;;;;6.30;2.00;;;;;;;8.58;80.87;97458.55;433270;1270;109056;-40
2022/09/18 03:28:54;;;;;;;8.50;2.40;;;;;;;8.49;80.95;97462.89;433901;1265;96169;-40
2022/09/18 03:39:01;;;;;;;8.00;3.00;;;;;;;8.42;80.85;97463.70;433595;1268;108936;-40
2022/09/18 03:49:08;;;;;;;10.20;3.20;;;;;;;8.30;81.23;97461.90;433632;1268;96136;-40
2022/09/18 03:59:16;;;;;;;11.20;3.40;;;;;;;8.10;81.28;97460.20;433696;1268;96167;-40
2022/09/18 04:09:23;;;;;;;7.00;2.40;;;;;;;8.01;81.27;97462.85;433948;1268;109171;-40
2022/09/18 04:19:30;;;;;;;7.30;2.60;;;;;;;8.06;81.23;97460.89;433657;1268;109066;-40
2022/09/18 04:29:37;;;;;;;12.80;3.20;;;;;;;8.02;81.19;97455.91;433677;1267;96146;-42
2022/09/18 04:39:45;;;;;;;7.30;2.60;;;;;;;8.01;81.34;97447.06;433691;1268;109015;-40
2022/09/18 04:59:59;;;;;;;6.40;3.40;;;;;;;8.11;81.68;97456.52;433608;1270;97206;-40
2022/09/18 05:10:07;;;;;;;12.40;3.20;;;;;;;8.06;81.21;97459.30;433723;1268;109736;-41
2022/09/18 05:20:14;;;;;;;10.70;2.90;;;;;;;8.14;81.28;97463.92;433446;1268;108706;-40
2022/09/18 05:30:21;;;;;;;6.40;2.30;;;;;;;8.32;81.30;97473.67;432655;1268;96138;-41
2022/09/18 05:40:32;;;;;;;11.50;4.40;;;;;;;8.62;81.47;97482.52;433829;1268;109028;-41
2022/09/18 06:00:47;;;;;;;4.50;2.60;;;;;;;9.10;81.11;97478.31;433825;1268;95757;-41
2022/09/18 06:10:54;;;;;;;8.00;1.90;;;;;;;9.12;80.85;97472.59;433927;1268;108990;-40
2022/09/18 06:21:01;;;;;;;4.40;2.50;;;;;;;9.13;80.86;97471.13;432871;1268;1486715;-40
2022/09/18 06:31:09;;;;;;;8.50;3.40;;;;;;;9.25;81.06;97475.20;433865;1268;96146;-40
2022/09/18 06:41:16;;;;;;;12.20;2.80;;;;;;;9.53;80.85;97482.54;433795;1268;109696;-41
2022/09/18 06:51:24;;;;;;;3.30;1.50;;;;;;;9.74;80.77;97485.40;433814;1268;108787;-40
2022/09/18 07:01:31;;;;;;;6.50;2.10;;;;;;;10.31;80.91;97475.41;433225;1271;97204;-40
2022/09/18 07:11:38;;;;;;;1.90;1.50;;;;;;;10.39;80.54;97481.34;433753;1268;109356;-40
2022/09/18 07:21:45;;;;;;;4.10;2.30;;;;;;;10.23;80.40;97489.70;433573;1268;109284;-41
2022/09/18 07:31:52;;;;;;;2.10;1.50;;;;;;;10.61;80.25;97489.64;433526;1268;96207;-41
2022/09/18 07:41:59;;;;;;;2.50;1.40;;;;;;;10.83;80.07;97493.90;433769;1268;109677;-39
2022/09/18 07:52:10;;;;;;;3.20;1.60;;;;;;;10.99;80.14;97492.95;433293;1268;108895;-39
2022/09/18 08:02:18;;;;;;;2.30;1.80;;;;;;;11.91;79.82;97494.61;433618;1268;97214;-39
2022/09/18 08:12:25;;;;;;;3.40;1.90;;;;;;;11.77;78.98;97497.41;432589;1270;96159;-39
2022/09/18 08:22:38;;;;;;;2.10;1.30;;;;;;;11.65;78.48;97494.90;434002;1268;109647;-41
2022/09/18 08:32:46;;;;;;;2.50;1.50;;;;;;;11.40;78.29;97500.11;433708;1268;107784;-40
2022/09/18 08:42:57;;;;;;;3.10;2.00;;;;;;;11.50;78.65;97495.98;433740;1268;96146;-40
2022/09/18 08:53:06;;;;;;;8.60;4.90;;;;;;;11.88;78.26;97487.05;433646;1268;109738;-40
2022/09/18 09:03:15;;;;;;;2.90;1.60;;;;;;;11.97;77.96;97491.59;433676;1268;108120;-40
2022/09/18 09:13:50;;;;;;;1.80;1.00;;;;;;;11.81;77.58;97493.70;433889;1268;108609;-39
2022/09/18 09:24:00;;;;;;;1.70;1.30;;;;;;;11.64;77.28;97487.55;433579;1268;96812;-39
2022/09/18 09:34:11;;;;;;;2.90;1.00;;;;;;;11.70;77.37;97490.45;433656;1268;109844;-40
2022/09/18 09:44:22;;;;;;;0.90;0.80;;;;;;;11.38;76.87;97497.77;433709;1268;108716;-40
2022/09/18 09:54:30;;;;;;;1.20;0.80;;;;;;;10.97;76.39;97507.18;433736;1268;108929;-39
2022/09/18 10:04:40;;;;;;;1.90;1.00;;;;;;;10.88;76.26;97513.77;433528;1268;96130;-40
2022/09/18 10:14:50;;;;;;;0.80;0.70;;;;;;;11.37;76.63;97519.16;432866;1269;108676;-40
2022/09/18 10:24:55;;;;;;;2.50;1.60;;;;;;;12.06;76.54;97521.85;433628;1268;109274;-40
2022/09/18 10:35:23;;;;;;;2.10;0.80;;;;;;;11.81;75.89;97531.62;433452;1268;96191;-39
2022/09/18 10:45:41;;;;;;;1.20;0.80;;;;;;;11.55;76.03;97533.27;433868;1267;96141;-40
2022/09/18 10:55:48;;;;;;;2.00;1.10;;;;;;;11.91;75.74;97532.86;433468;1268;109879;-39
2022/09/18 11:06:02;;;;;;;1.10;1.00;;;;;;;11.86;75.58;97537.39;433819;1267;108395;-38
2022/09/18 11:16:10;;;;;;;1.50;1.10;;;;;;;12.16;75.39;97534.81;434327;1268;96579;-39
2022/09/18 11:26:27;;;;;;;5.50;1.10;;;;;;;12.76;74.98;97533.55;433942;1268;111232;-39
2022/09/18 11:36:39;;;;;;;3.10;1.00;;;;;;;13.21;74.69;97539.56;433909;1267;109026;-40
2022/09/18 11:46:49;;;;;;;2.60;0.80;;;;;;;13.45;73.83;97539.44;433996;1268;108482;-41
2022/09/18 11:57:01;;;;;;;0.80;0.70;;;;;;;13.44;73.20;97534.39;434049;1267;97484;-39
2022/09/18 12:07:10;;;;;;;7.60;3.80;;;;;;;13.48;72.52;97536.34;433925;1268;111126;-41
2022/09/18 12:17:20;;;;;;;1.40;1.10;;;;;;;13.18;72.07;97541.10;434227;1267;107688;-39
2022/09/18 12:27:26;;;;;;;1.50;1.10;;;;;;;12.67;72.03;97562.38;434076;1267;96586;-39
2022/09/18 12:37:38;;;;;;;2.20;1.30;;;;;;;12.67;72.93;97569.64;434009;1266;111059;-39
2022/09/18 12:48:00;;;;;;;4.80;2.40;;;;;;;12.44;73.53;97576.27;434037;1266;108829;-40
2022/09/18 12:58:09;;;;;;;5.90;2.70;;;;;;;12.15;74.28;97574.05;434254;1266;98007;-40
2022/09/18 13:08:18;;;;;;;3.20;1.50;;;;;;;12.30;74.85;97579.98;434210;1266;111055;-40
2022/09/18 13:28:35;;;;;;;0.60;0.60;;;;;;;12.09;76.15;97600.59;434147;1267;97981;-39
2022/09/18 13:38:49;;;;;;;0.70;0.70;;;;;;;12.04;76.22;97607.69;434068;1266;108954;-39
2022/09/18 13:48:58;;;;;;;2.80;0.60;;;;;;;11.72;76.63;97615.72;434397;1266;97904;-42
2022/09/18 13:59:19;;;;;;;2.20;1.20;;;;;;;11.55;76.95;97630.34;434005;1266;97929;-41
2022/09/18 14:09:25;;;;;;;1.20;0.70;;;;;;;11.33;77.47;97648.56;433892;1266;107611;-39
2022/09/18 14:19:34;;;;;;;2.90;0.80;;;;;;;11.20;77.91;97656.81;434284;1267;96658;-40
2022/09/18 14:29:42;;;;;;;4.30;1.10;;;;;;;11.12;78.08;97666.23;434112;1266;111063;-40
2022/09/18 14:39:49;;;;;;;6.30;3.20;;;;;;;10.69;78.49;97672.41;434309;1268;108702;-40
2022/09/18 14:49:56;;;;;;;6.20;2.10;;;;;;;10.42;78.97;97674.39;434071;1266;96931;-40
2022/09/18 15:00:01;;;;;;;9.10;2.50;;;;;;;10.36;79.20;97676.16;434032;1266;108773;-40
2022/09/18 15:10:09;;;;;;;7.10;2.00;;;;;;;10.52;79.64;97672.70;434242;1267;96580;-40
2022/09/18 15:20:17;;;;;;;8.20;2.80;;;;;;;10.84;79.94;97676.21;434117;1266;110358;-40
2022/09/18 15:30:26;;;;;;;8.20;3.00;;;;;;;10.88;79.82;97673.45;434303;1266;108699;-40
2022/09/18 15:40:33;;;;;;;17.20;4.90;;;;;;;10.72;79.98;97670.75;434307;1267;97974;-41
2022/09/18 15:50:44;;;;;;;10.60;3.10;;;;;;;10.70;80.13;97673.70;434243;1267;111560;-40
2022/09/18 16:00:54;;;;;;;7.70;3.80;;;;;;;10.71;80.19;97671.75;434014;1267;108848;-40
2022/09/18 16:11:01;;;;;;;6.80;3.40;;;;;;;10.76;80.37;97668.40;434019;1266;97869;-41
2022/09/18 16:21:09;;;;;;;12.90;5.00;;;;;;;10.87;80.52;97670.48;433462;1266;108827;-40
2022/09/18 16:31:18;;;;;;;17.00;8.40;;;;;;;10.84;80.46;97671.02;434283;1267;97887;-40
2022/09/18 16:41:25;;;;;;;12.70;5.00;;;;;;;10.74;80.40;97673.40;434026;1266;97888;-41
2022/09/18 16:51:33;;;;;;;6.90;4.00;;;;;;;10.60;80.25;97677.10;434158;1268;108941;-40
2022/09/18 17:01:42;;;;;;;14.50;6.80;;;;;;;10.48;80.39;97689.60;434212;1267;97987;-40
2022/09/18 17:12:07;;;;;;;15.50;5.70;;;;;;;10.47;80.66;97690.59;434378;1266;111307;-40
2022/09/18 17:22:14;;;;;;;14.20;8.30;;;;;;;10.38;80.72;97699.44;434024;1267;96652;-40
2022/09/18 17:32:23;;;;;;;15.00;6.90;;;;;;;10.20;80.55;97703.18;434120;1266;98243;-40
2022/09/18 17:42:31;;;;;;;13.80;7.00;;;;;;;10.06;80.66;97701.48;434338;1266;111141;-40
2022/09/18 17:52:38;;;;;;;15.50;7.30;;;;;;;9.96;80.71;97704.22;433954;1265;108294;-41
2022/09/18 18:02:45;;;;;;;18.70;6.60;;;;;;;9.92;80.85;97702.52;434086;1267;96690;-40
2022/09/18 18:12:53;;;;;;;18.60;9.00;;;;;;;9.82;80.94;97696.99;434156;1267;108540;-40
2022/09/18 18:23:00;;;;;;;21.30;12.10;;;;;;;9.62;80.92;97703.66;432749;1266;1663735;-40
2022/09/18 18:33:07;;;;;;;25.70;10.40;;;;;;;9.41;80.91;97703.73;433767;1267;110974;-40
2022/09/18 18:43:14;;;;;;;16.50;9.30;;;;;;;9.35;81.17;97701.23;434043;1266;108955;-40
2022/09/18 18:53:21;;;;;;;26.10;13.10;;;;;;;9.35;81.09;97700.80;434010;1267;97789;-40
2022/09/18 19:03:28;;;;;;;22.90;10.20;;;;;;;9.29;81.08;97703.64;434518;1266;109039;-41
2022/09/18 19:23:42;;;;;;;13.80;8.50;;;;;;;8.95;81.29;97703.14;434154;1267;97300;-40
2022/09/18 19:33:51;;;;;;;15.00;8.10;;;;;;;9.00;81.51;97702.02;434364;1266;109717;-40
2022/09/18 19:43:58;;;;;;;10.60;6.90;;;;;;;9.05;81.49;97697.39;434304;1266;97479;-40
2022/09/18 19:54:05;;;;;;;20.00;9.70;;;;;;;8.97;81.40;97699.11;434227;1266;110704;-40
2022/09/18 20:04:12;;;;;;;17.60;9.30;;;;;;;8.75;81.35;97697.96;434295;1266;108715;-40
2022/09/18 20:14:19;;;;;;;18.60;10.90;;;;;;;8.56;81.26;97689.34;434117;1266;108688;-40
2022/09/18 20:24:26;;;;;;;14.60;7.80;;;;;;;8.54;81.49;97683.27;434019;1266;98605;-40
2022/09/18 20:34:33;;;;;;;19.00;8.10;;;;;;;8.56;81.61;97682.75;433984;1266;107954;-40
2022/09/18 20:44:40;;;;;;;15.70;9.80;;;;;;;8.52;81.55;97678.09;434059;1268;98213;-40
2022/09/18 20:54:51;;;;;;;21.20;9.40;;;;;;;8.39;81.50;97687.67;434557;1267;110194;-40
2022/09/18 21:04:59;;;;;;;12.40;7.90;;;;;;;8.34;81.42;97679.95;434226;1266;108759;-41
2022/09/18 21:15:04;;;;;;;10.50;6.50;;;;;;;8.38;81.68;97676.42;433942;1267;97512;-41
2022/09/18 21:25:12;;;;;;;9.50;4.50;;;;;;;8.30;81.36;97675.45;434009;1265;110219;-39
2022/09/18 21:35:19;;;;;;;9.00;4.40;;;;;;;8.22;81.60;97672.39;433868;1267;107856;-39
2022/09/18 21:45:29;;;;;;;8.40;4.60;;;;;;;8.18;81.74;97670.01;433912;1267;98205;-40
2022/09/18 22:05:42;;;;;;;9.90;4.40;;;;;;;8.32;81.97;97666.63;433902;1267;108367;-40
2022/09/18 22:15:55;;;;;;;5.70;3.50;;;;;;;8.47;82.03;97663.14;433594;1267;97891;-40
2022/09/18 22:26:02;;;;;;;5.90;3.80;;;;;;;8.47;81.92;97665.99;433792;1267;107838;-40
2022/09/18 22:36:10;;;;;;;12.30;4.40;;;;;;;8.37;82.10;97661.19;434169;1268;107745;-40
2022/09/18 22:46:18;;;;;;;7.20;2.80;;;;;;;8.28;82.25;97656.81;434250;1266;97928;-40
2022/09/18 22:56:26;;;;;;;7.80;1.90;;;;;;;8.35;82.25;97665.64;434086;1266;108789;-39
2022/09/18 23:06:35;;;;;;;4.70;1.70;;;;;;;8.46;82.53;97665.02;434396;1267;97381;-40
2022/09/18 23:16:42;;;;;;;3.00;1.40;;;;;;;8.55;82.57;97668.93;434163;1265;111152;-41
2022/09/18 23:26:51;;;;;;;2.60;1.50;;;;;;;8.43;82.63;97664.61;434001;1268;109093;-40
2022/09/18 23:36:59;;;;;;;4.80;1.40;;;;;;;8.22;82.76;97670.45;434016;1266;97301;-41
2022/09/18 23:47:07;;;;;;;9.50;1.70;;;;;;;8.14;82.90;97672.10;434116;1266;111613;-41
2022/09/18 23:57:14;;;;;;;0.80;0.50;;;;;;;8.18;82.87;97671.95;434277;1267;108412;-41
